createdAt,value
2018-04-02T00:00:40.674Z,31.6
2018-04-02T00:01:29.522Z,30.7
2018-04-02T00:02:20.039Z,29.8
2018-04-02T00:03:11.377Z,29
2018-04-02T00:04:00.966Z,28.3
2018-04-02T00:06:31.445Z,27.9
2018-04-02T00:07:20.134Z,27.7
2018-04-02T00:08:11.758Z,27.4
2018-04-02T00:09:01.358Z,27.2
2018-04-02T00:09:52.152Z,27.1
2018-04-02T00:10:42.499Z,26.9
2018-04-02T00:11:32.076Z,26.8
2018-04-02T00:12:21.691Z,26.8
2018-04-02T00:13:12.368Z,26.8
2018-04-02T00:14:01.986Z,26.6
2018-04-02T00:14:51.642Z,26.5
2018-04-02T00:15:42.538Z,27.4
2018-04-02T00:16:32.883Z,28.6
2018-04-02T00:17:22.403Z,29.3
2018-04-02T00:18:12.370Z,29.9
2018-04-02T00:19:01.758Z,30.4
2018-04-02T00:19:52.224Z,30.9
2018-04-02T00:20:42.288Z,31.3
2018-04-02T00:21:32.020Z,31.7
2018-04-02T00:22:23.010Z,32.1
2018-04-02T00:23:12.832Z,32.4
2018-04-02T00:24:02.784Z,32.7
2018-04-02T00:24:52.185Z,33
2018-04-02T00:25:43.153Z,33.3
2018-04-02T00:26:32.782Z,33.5
2018-04-02T00:27:22.655Z,33.8
2018-04-02T00:28:13.122Z,34
2018-04-02T00:29:03.312Z,34.2
2018-04-02T00:29:53.066Z,34.4
2018-04-02T00:30:42.480Z,34.7
2018-04-02T00:31:33.861Z,34.8
2018-04-02T00:32:22.939Z,34.7
2018-04-02T00:33:13.002Z,33.9
2018-04-02T00:34:03.842Z,33.7
2018-04-02T00:34:53.214Z,33.3
2018-04-02T00:35:44.207Z,32.8
2018-04-02T00:36:34.260Z,31.9
2018-04-02T00:37:24.607Z,31.1
2018-04-02T00:38:14.663Z,30.3
2018-04-02T00:39:05.029Z,29.4
2018-04-02T00:39:54.246Z,28.8
2018-04-02T00:40:44.009Z,28.2
2018-04-02T00:41:34.197Z,27.7
2018-04-02T00:42:24.293Z,28
2018-04-02T00:43:14.876Z,27.9
2018-04-02T00:44:04.656Z,27.5
2018-04-02T00:44:54.699Z,27.3
2018-04-02T00:45:44.869Z,27.1
2018-04-02T00:46:35.157Z,26.9
2018-04-02T00:47:25.674Z,26.8
2018-04-02T00:48:15.716Z,26.7
2018-04-02T00:49:05.513Z,26.6
2018-04-02T00:49:55.493Z,26.6
2018-04-02T00:50:45.946Z,26.5
2018-04-02T00:51:35.175Z,26.5
2018-04-02T00:52:25.418Z,26.8
2018-04-02T00:53:16.091Z,28
2018-04-02T00:54:06.133Z,28.9
2018-04-02T00:54:56.497Z,29.6
2018-04-02T00:55:45.690Z,30.1
2018-04-02T00:56:36.265Z,30.6
2018-04-02T00:57:24.408Z,31.1
2018-04-02T00:58:15.740Z,31.5
2018-04-02T00:59:05.683Z,31.9
2018-04-02T00:59:55.785Z,32.3
2018-04-02T01:00:45.001Z,32.5
2018-04-02T01:01:35.312Z,32.8
2018-04-02T01:02:25.388Z,33.1
2018-04-02T01:03:15.684Z,33.4
2018-04-02T01:04:04.543Z,33.6
2018-04-02T01:04:55.033Z,33.9
2018-04-02T01:05:45.522Z,34.1
2018-04-02T01:06:36.292Z,34.3
2018-04-02T01:07:25.130Z,34.6
2018-04-02T01:08:16.404Z,34.8
2018-04-02T01:09:05.934Z,34.8
2018-04-02T01:09:56.337Z,33.9
2018-04-02T01:10:46.714Z,33.7
2018-04-02T01:11:36.247Z,33.4
2018-04-02T01:12:26.877Z,32.9
2018-04-02T01:13:16.242Z,32.2
2018-04-02T01:14:06.050Z,31.4
2018-04-02T01:14:56.305Z,30.5
2018-04-02T01:15:47.217Z,29.7
2018-04-02T01:16:36.729Z,29
2018-04-02T01:17:26.401Z,28.4
2018-04-02T01:18:16.835Z,27.9
2018-04-02T01:19:06.917Z,27.5
2018-04-02T01:19:57.045Z,27.9
2018-04-02T01:20:46.479Z,27.9
2018-04-02T01:21:36.710Z,27.7
2018-04-02T01:22:27.378Z,27.6
2018-04-02T01:23:16.649Z,27.4
2018-04-02T01:24:05.982Z,27.3
2018-04-02T01:24:57.266Z,27.3
2018-04-02T01:25:47.694Z,27.1
2018-04-02T01:26:36.936Z,27.1
2018-04-02T01:27:26.956Z,27.1
2018-04-02T01:28:15.928Z,27
2018-04-02T01:29:07.268Z,26.9
2018-04-02T01:29:57.587Z,27.2
2018-04-02T01:30:47.746Z,28.3
2018-04-02T01:31:37.113Z,29.2
2018-04-02T01:32:27.917Z,29.8
2018-04-02T01:33:17.299Z,30.3
2018-04-02T01:34:07.026Z,30.8
2018-04-02T01:34:58.490Z,31.2
2018-04-02T01:35:48.045Z,31.6
2018-04-02T01:36:38.148Z,31.9
2018-04-02T01:37:27.754Z,32.3
2018-04-02T01:38:17.481Z,32.6
2018-04-02T01:39:08.151Z,32.9
2018-04-02T01:39:58.300Z,33.1
2018-04-02T01:40:48.548Z,33.4
2018-04-02T01:41:38.885Z,33.6
2018-04-02T01:42:29.073Z,33.8
2018-04-02T01:43:18.649Z,34.1
2018-04-02T01:44:08.236Z,34.3
2018-04-02T01:44:58.204Z,34.5
2018-04-02T01:45:49.126Z,34.7
2018-04-02T01:46:38.633Z,34.7
2018-04-02T01:47:28.298Z,33.8
2018-04-02T01:48:19.810Z,33.7
2018-04-02T01:49:10.123Z,33.3
2018-04-02T01:50:00.163Z,32.8
2018-04-02T01:50:50.328Z,32.1
2018-04-02T01:51:40.048Z,31.3
2018-04-02T01:52:30.350Z,30.4
2018-04-02T01:53:19.856Z,29.6
2018-04-02T01:54:09.995Z,28.9
2018-04-02T01:54:59.253Z,28.3
2018-04-02T01:55:49.580Z,27.9
2018-04-02T01:56:40.127Z,27.6
2018-04-02T01:57:28.345Z,27.9
2018-04-02T01:59:08.689Z,27.6
2018-04-02T01:59:59.695Z,27.4
2018-04-02T02:00:48.764Z,27.3
2018-04-02T02:01:40.039Z,27.2
2018-04-02T02:02:29.676Z,27.1
2018-04-02T02:03:20.021Z,27
2018-04-02T02:04:09.216Z,26.9
2018-04-02T02:04:59.512Z,26.9
2018-04-02T02:05:48.951Z,26.9
2018-04-02T02:06:41.255Z,26.8
2018-04-02T02:07:29.533Z,26.8
2018-04-02T02:08:19.981Z,27.7
2018-04-02T02:09:10.069Z,28.8
2018-04-02T02:09:59.619Z,29.5
2018-04-02T02:10:51.157Z,30.1
2018-04-02T02:11:39.375Z,30.6
2018-04-02T02:12:30.339Z,31
2018-04-02T02:13:20.471Z,31.4
2018-04-02T02:14:09.946Z,31.8
2018-04-02T02:14:59.926Z,32.1
2018-04-02T02:15:50.636Z,32.4
2018-04-02T02:16:40.039Z,32.8
2018-04-02T02:17:30.345Z,33.1
2018-04-02T02:18:19.888Z,33.3
2018-04-02T02:19:10.674Z,33.6
2018-04-02T02:20:01.441Z,33.8
2018-04-02T02:20:51.885Z,34.1
2018-04-02T02:21:41.147Z,34.3
2018-04-02T02:22:31.422Z,34.5
2018-04-02T02:23:21.307Z,34.8
2018-04-02T02:24:10.694Z,34.9
2018-04-02T02:25:02.324Z,33.9
2018-04-02T02:25:51.986Z,33.8
2018-04-02T02:26:41.073Z,33.4
2018-04-02T02:27:31.570Z,32.9
2018-04-02T02:28:21.434Z,32.3
2018-04-02T02:29:10.568Z,31.5
2018-04-02T02:30:00.991Z,30.6
2018-04-02T02:30:51.957Z,29.8
2018-04-02T02:31:41.838Z,29.1
2018-04-02T02:32:31.472Z,28.5
2018-04-02T02:33:22.188Z,28
2018-04-02T02:34:12.128Z,27.9
2018-04-02T02:35:02.092Z,28.1
2018-04-02T02:35:51.826Z,27.9
2018-04-02T02:36:42.000Z,27.7
2018-04-02T02:37:32.944Z,27.6
2018-04-02T02:38:23.182Z,27.4
2018-04-02T02:39:11.883Z,27.3
2018-04-02T02:40:03.269Z,27.2
2018-04-02T02:40:52.600Z,27.1
2018-04-02T02:41:43.059Z,27.1
2018-04-02T02:42:32.752Z,27
2018-04-02T02:43:23.054Z,26.9
2018-04-02T02:44:13.113Z,26.9
2018-04-02T02:45:03.306Z,26.8
2018-04-02T02:45:53.434Z,27.6
2018-04-02T02:46:42.719Z,28.6
2018-04-02T02:47:34.138Z,29.4
2018-04-02T02:48:23.107Z,30
2018-04-02T02:49:13.532Z,30.5
2018-04-02T02:50:03.631Z,30.9
2018-04-02T02:50:54.670Z,31.3
2018-04-02T02:51:44.462Z,31.7
2018-04-02T02:52:35.143Z,31.7
2018-04-02T02:53:24.269Z,30.6
2018-04-02T02:54:14.896Z,29.1
2018-04-02T02:55:04.412Z,27.9
2018-04-02T02:55:54.713Z,26.5
2018-04-02T02:56:45.299Z,26
2018-04-02T02:57:35.116Z,26
2018-04-02T02:58:24.377Z,27
2018-04-02T02:59:14.974Z,28.3
2018-04-02T03:00:05.071Z,29.3
2018-04-02T03:00:55.365Z,30
2018-04-02T03:01:45.434Z,30.6
2018-04-02T03:02:34.997Z,31.1
2018-04-02T03:03:26.165Z,31.6
2018-04-02T03:04:15.020Z,32
2018-04-02T03:05:04.288Z,32.3
2018-04-02T03:05:53.438Z,32.7
2018-04-02T03:06:44.693Z,33
2018-04-02T03:07:34.808Z,33.4
2018-04-02T03:08:24.513Z,33.6
2018-04-02T03:09:14.793Z,33.9
2018-04-02T03:10:05.300Z,34.1
2018-04-02T03:10:53.082Z,34.4
2018-04-02T03:11:44.347Z,34.6
2018-04-02T03:12:34.114Z,34.8
2018-04-02T03:13:25.463Z,33.9
2018-04-02T03:14:14.904Z,33.8
2018-04-02T03:15:05.099Z,33.5
2018-04-02T03:15:55.534Z,33
2018-04-02T03:16:45.590Z,32.3
2018-04-02T03:17:35.240Z,31.6
2018-04-02T03:18:24.537Z,30.7
2018-04-02T03:19:14.217Z,29.9
2018-04-02T03:20:05.233Z,29.2
2018-04-02T03:20:55.175Z,28.6
2018-04-02T03:21:44.369Z,28.1
2018-04-02T03:22:36.325Z,27.7
2018-04-02T03:23:25.839Z,27.9
2018-04-02T03:24:17.074Z,28
2018-04-02T03:25:20.662Z,27.9
2018-04-02T03:25:55.728Z,27.8
2018-04-02T03:26:45.815Z,27.7
2018-04-02T03:27:35.832Z,27.6
2018-04-02T03:28:25.564Z,27.5
2018-04-02T03:29:15.902Z,27.5
2018-04-02T03:30:05.868Z,27.4
2018-04-02T03:30:56.081Z,27.4
2018-04-02T03:31:47.442Z,27.3
2018-04-02T03:32:36.647Z,27.3
2018-04-02T03:33:26.197Z,27.2
2018-04-02T03:34:15.805Z,27.2
2018-04-02T03:35:07.050Z,28.3
2018-04-02T03:35:57.397Z,29.3
2018-04-02T03:36:47.048Z,29.9
2018-04-02T03:37:36.868Z,30.4
2018-04-02T03:38:26.151Z,30.9
2018-04-02T03:39:17.001Z,31.3
2018-04-02T03:40:07.968Z,31.7
2018-04-02T03:40:56.986Z,32.1
2018-04-02T03:41:46.906Z,32.4
2018-04-02T03:42:36.680Z,32.8
2018-04-02T03:43:27.593Z,33.1
2018-04-02T03:44:17.690Z,33.4
2018-04-02T03:45:06.351Z,33.6
2018-04-02T03:45:56.957Z,33.9
2018-04-02T03:46:46.762Z,34.2
2018-04-02T03:47:36.453Z,34.4
2018-04-02T03:48:28.873Z,34.6
2018-04-02T03:49:18.284Z,34.9
2018-04-02T03:50:08.381Z,34
2018-04-02T03:50:58.408Z,33.8
2018-04-02T03:51:48.491Z,33.6
2018-04-02T03:52:39.113Z,33.1
2018-04-02T03:53:28.598Z,32.4
2018-04-02T03:54:19.258Z,31.6
2018-04-02T03:55:09.030Z,30.8
2018-04-02T03:55:59.060Z,29.9
2018-04-02T03:56:49.457Z,29.2
2018-04-02T03:57:39.825Z,28.6
2018-04-02T03:58:29.013Z,28.1
2018-04-02T04:00:09.950Z,28.1
2018-04-02T04:00:58.865Z,28.2
2018-04-02T04:01:50.123Z,28.2
2018-04-02T04:02:38.714Z,28.1
2018-04-02T04:03:29.907Z,28.1
2018-04-02T04:04:19.660Z,28
2018-04-02T04:05:09.486Z,27.9
2018-04-02T04:05:58.966Z,27.9
2018-04-02T04:06:50.392Z,27.9
2018-04-02T04:07:38.809Z,27.9
2018-04-02T04:10:09.134Z,27.6
2018-04-02T04:10:59.201Z,28
2018-04-02T04:11:49.409Z,29.1
2018-04-02T04:12:39.738Z,29.9
2018-04-02T04:13:29.605Z,30.4
2018-04-02T04:14:19.879Z,30.9
2018-04-02T04:15:09.323Z,31.4
2018-04-02T04:15:59.111Z,31.8
2018-04-02T04:16:49.629Z,32.1
2018-04-02T04:17:40.140Z,32.5
2018-04-02T04:18:30.152Z,32.9
2018-04-02T04:19:19.618Z,33.1
2018-04-02T04:20:09.386Z,33.4
2018-04-02T04:20:59.136Z,33.7
2018-04-02T04:21:49.145Z,33.9
2018-04-02T04:22:40.046Z,34.2
2018-04-02T04:23:29.965Z,34.4
2018-04-02T04:24:19.931Z,34.7
2018-04-02T04:25:09.635Z,34.9
2018-04-02T04:25:59.155Z,33.9
2018-04-02T04:26:49.720Z,33.8
2018-04-02T04:27:41.193Z,33.5
2018-04-02T04:28:29.607Z,33
2018-04-02T04:29:19.986Z,32.3
2018-04-02T04:30:10.404Z,31.6
2018-04-02T04:31:00.565Z,30.8
2018-04-02T04:31:51.578Z,29.9
2018-04-02T04:32:40.329Z,29.1
2018-04-02T04:33:29.877Z,28.6
2018-04-02T04:34:20.388Z,28.1
2018-04-02T04:35:09.574Z,28.3
2018-04-02T04:36:00.580Z,28.4
2018-04-02T04:36:50.686Z,28.4
2018-04-02T04:37:40.370Z,28.3
2018-04-02T04:38:30.422Z,28.3
2018-04-02T04:39:20.862Z,28.2
2018-04-02T04:40:11.578Z,28.1
2018-04-02T04:41:01.009Z,28.1
2018-04-02T04:41:50.288Z,28
2018-04-02T04:42:41.427Z,27.9
2018-04-02T04:43:31.079Z,27.9
2018-04-02T04:44:21.313Z,27.9
2018-04-02T04:45:10.542Z,27.8
2018-04-02T04:46:01.967Z,27.6
2018-04-02T04:46:51.418Z,28.7
2018-04-02T04:47:41.616Z,29.6
2018-04-02T04:48:31.632Z,30.2
2018-04-02T04:49:22.044Z,30.7
2018-04-02T04:50:11.269Z,31.1
2018-04-02T04:51:02.007Z,31.6
2018-04-02T04:51:52.457Z,31.9
2018-04-02T04:52:41.832Z,32.3
2018-04-02T04:53:32.721Z,32.7
2018-04-02T04:54:22.061Z,33.1
2018-04-02T04:55:12.432Z,33.4
2018-04-02T04:56:02.400Z,33.8
2018-04-02T04:56:52.533Z,34.1
2018-04-02T04:57:42.315Z,34.4
2018-04-02T04:58:32.339Z,34.7
2018-04-02T04:59:22.586Z,34.9
2018-04-02T05:00:13.203Z,34.8
2018-04-02T05:01:02.668Z,34.1
2018-04-02T05:01:52.428Z,33.9
2018-04-02T05:02:43.048Z,33.6
2018-04-02T05:03:32.859Z,32.9
2018-04-02T05:04:23.030Z,32.3
2018-04-02T05:05:13.446Z,31.5
2018-04-02T05:06:02.862Z,30.6
2018-04-02T05:06:53.159Z,29.8
2018-04-02T05:07:43.746Z,29.1
2018-04-02T05:08:33.015Z,28.5
2018-04-02T05:09:24.418Z,28.1
2018-04-02T05:10:13.419Z,27.8
2018-04-02T05:11:02.978Z,27.5
2018-04-02T05:11:53.223Z,27.3
2018-04-02T05:12:44.042Z,27.1
2018-04-02T05:13:33.640Z,26.9
2018-04-02T05:14:23.936Z,26.8
2018-04-02T05:15:12.970Z,26.8
2018-04-02T05:16:04.205Z,26.7
2018-04-02T05:16:53.744Z,26.6
2018-04-02T05:17:43.169Z,26.6
2018-04-02T05:18:34.039Z,26.5
2018-04-02T05:19:24.489Z,26.5
2018-04-02T05:20:14.502Z,26.4
2018-04-02T05:21:04.409Z,26.4
2018-04-02T05:21:54.454Z,26.4
2018-04-02T05:22:43.972Z,26.4
2018-04-02T05:23:33.784Z,26.4
2018-04-02T05:24:24.557Z,26.3
2018-04-02T05:25:14.496Z,26.3
2018-04-02T05:26:03.935Z,26.5
2018-04-02T05:26:55.085Z,27.1
2018-04-02T05:27:46.262Z,28.4
2018-04-02T05:28:35.794Z,29.4
2018-04-02T05:29:26.118Z,30.1
2018-04-02T05:30:16.466Z,30.6
2018-04-02T05:31:05.911Z,31.1
2018-04-02T05:31:55.757Z,31.5
2018-04-02T05:32:46.106Z,31.9
2018-04-02T05:33:35.901Z,32.3
2018-04-02T05:34:26.256Z,32.7
2018-04-02T05:35:16.598Z,33.1
2018-04-02T05:36:06.369Z,33.4
2018-04-02T05:36:56.732Z,33.7
2018-04-02T05:37:45.306Z,34
2018-04-02T05:38:36.816Z,34.3
2018-04-02T05:39:25.806Z,34.6
2018-04-02T05:40:15.771Z,34.8
2018-04-02T05:41:04.749Z,35.1
2018-04-02T05:41:55.175Z,34.1
2018-04-02T05:42:45.671Z,33.9
2018-04-02T05:43:35.924Z,33.7
2018-04-02T05:44:27.230Z,33.3
2018-04-02T05:45:16.021Z,32.6
2018-04-02T05:46:06.430Z,31.9
2018-04-02T05:46:56.175Z,31
2018-04-02T05:47:45.544Z,30.2
2018-04-02T05:48:35.805Z,29.4
2018-04-02T05:49:26.241Z,28.8
2018-04-02T05:50:16.316Z,28.3
2018-04-02T05:51:57.402Z,27.5
2018-04-02T05:52:45.981Z,27.2
2018-04-02T05:53:36.561Z,26.9
2018-04-02T05:54:26.009Z,26.7
2018-04-02T05:55:16.267Z,26.6
2018-04-02T05:56:06.281Z,26.4
2018-04-02T05:56:57.126Z,26.3
2018-04-02T05:57:46.552Z,26.2
2018-04-02T05:58:36.531Z,26.1
2018-04-02T05:59:27.754Z,26
2018-04-02T06:00:16.648Z,25.9
2018-04-02T06:01:07.119Z,25.9
2018-04-02T06:01:57.738Z,25.8
2018-04-02T06:02:47.416Z,25.8
2018-04-02T06:03:37.273Z,25.8
2018-04-02T06:04:28.010Z,25.7
2018-04-02T06:05:17.884Z,25.7
2018-04-02T06:06:07.593Z,25.6
2018-04-02T06:06:57.585Z,25.6
2018-04-02T06:07:47.161Z,25.8
2018-04-02T06:08:37.341Z,26.4
2018-04-02T06:09:27.420Z,27.8
2018-04-02T06:10:17.240Z,28.8
2018-04-02T06:11:08.394Z,29.6
2018-04-02T06:11:57.284Z,30.3
2018-04-02T06:12:47.468Z,30.8
2018-04-02T06:13:37.424Z,31.3
2018-04-02T06:14:27.961Z,31.8
2018-04-02T06:15:18.806Z,32.3
2018-04-02T06:16:07.830Z,32.7
2018-04-02T06:16:58.384Z,33.1
2018-04-02T06:17:47.906Z,33.4
2018-04-02T06:18:38.975Z,33.8
2018-04-02T06:19:28.492Z,34.1
2018-04-02T06:20:17.692Z,34.4
2018-04-02T06:21:08.253Z,34.8
2018-04-02T06:21:58.978Z,35
2018-04-02T06:22:47.970Z,34.9
2018-04-02T06:23:38.720Z,34.2
2018-04-02T06:24:30.186Z,34.1
2018-04-02T06:25:19.058Z,33.7
2018-04-02T06:26:08.955Z,33.1
2018-04-02T06:26:58.861Z,32.5
2018-04-02T06:27:49.117Z,31.7
2018-04-02T06:28:39.188Z,30.9
2018-04-02T06:29:28.969Z,30
2018-04-02T06:30:18.997Z,29.3
2018-04-02T06:31:09.957Z,28.6
2018-04-02T06:31:59.432Z,28.1
2018-04-02T06:32:48.296Z,27.7
2018-04-02T06:33:39.042Z,27.4
2018-04-02T06:34:29.779Z,27.1
2018-04-02T06:35:19.293Z,26.9
2018-04-02T06:36:09.804Z,26.7
2018-04-02T06:36:59.877Z,26.5
2018-04-02T06:37:50.424Z,26.4
2018-04-02T06:38:39.504Z,26.3
2018-04-02T06:39:29.897Z,26.1
2018-04-02T06:40:19.927Z,26.1
2018-04-02T06:41:09.005Z,26
2018-04-02T06:42:00.626Z,25.9
2018-04-02T06:42:49.660Z,25.9
2018-04-02T06:43:39.917Z,25.8
2018-04-02T06:44:29.952Z,25.8
2018-04-02T06:45:20.084Z,25.7
2018-04-02T06:46:10.352Z,25.7
2018-04-02T06:47:00.724Z,25.6
2018-04-02T06:47:50.184Z,25.6
2018-04-02T06:48:41.229Z,25.6
2018-04-02T06:49:30.594Z,25.6
2018-04-02T06:50:21.307Z,25.6
2018-04-02T06:51:10.919Z,25.5
2018-04-02T06:52:01.068Z,25.5
2018-04-02T06:52:51.200Z,25.5
2018-04-02T06:53:40.677Z,25.5
2018-04-02T06:54:31.631Z,25.5
2018-04-02T06:55:21.283Z,25.4
2018-04-02T06:56:10.863Z,25.4
2018-04-02T06:57:00.953Z,25.4
2018-04-02T06:57:51.682Z,25.4
2018-04-02T06:58:41.347Z,25.4
2018-04-02T06:59:31.653Z,25.3
2018-04-02T07:00:21.178Z,25.3
2018-04-02T07:01:11.790Z,25.3
2018-04-02T07:02:01.795Z,25.3
2018-04-02T07:02:51.300Z,25.3
2018-04-02T07:03:40.789Z,25.2
2018-04-02T07:04:32.169Z,25.2
2018-04-02T07:05:21.981Z,25.2
2018-04-02T07:06:11.596Z,25.1
2018-04-02T07:07:01.473Z,25.1
2018-04-02T07:07:51.665Z,25.1
2018-04-02T07:08:41.596Z,25.1
2018-04-02T07:09:31.527Z,25
2018-04-02T07:10:22.639Z,25
2018-04-02T07:11:11.776Z,24.9
2018-04-02T07:12:02.204Z,24.9
2018-04-02T07:12:52.180Z,24.9
2018-04-02T07:13:41.520Z,24.9
2018-04-02T07:14:32.654Z,24.8
2018-04-02T07:15:23.035Z,24.8
2018-04-02T07:16:12.000Z,24.8
2018-04-02T07:17:01.709Z,24.8
2018-04-02T07:17:53.034Z,24.7
2018-04-02T07:18:42.892Z,24.7
2018-04-02T07:19:32.919Z,24.7
2018-04-02T07:20:22.602Z,24.6
2018-04-02T07:21:12.705Z,24.6
2018-04-02T07:22:02.024Z,24.6
2018-04-02T07:22:52.383Z,24.6
2018-04-02T07:23:43.602Z,24.5
2018-04-02T07:24:33.761Z,24.5
2018-04-02T07:25:23.177Z,24.4
2018-04-02T07:26:12.999Z,24.4
2018-04-02T07:27:03.371Z,24.4
2018-04-02T07:27:51.891Z,24.4
2018-04-02T07:28:43.707Z,24.4
2018-04-02T07:29:34.243Z,24.4
2018-04-02T07:30:22.158Z,24.4
2018-04-02T07:31:13.092Z,24.4
2018-04-02T07:32:03.906Z,24.3
2018-04-02T07:32:54.173Z,24.3
2018-04-02T07:33:43.343Z,24.3
2018-04-02T07:34:32.921Z,24.3
2018-04-02T07:35:23.319Z,24.2
2018-04-02T07:36:13.987Z,24.2
2018-04-02T07:37:04.332Z,24.1
2018-04-02T07:37:53.863Z,24.1
2018-04-02T07:38:44.787Z,24.1
2018-04-02T07:39:35.078Z,24.1
2018-04-02T07:40:23.641Z,24.1
2018-04-02T07:41:13.708Z,24
2018-04-02T07:42:04.338Z,24
2018-04-02T07:42:54.483Z,23.9
2018-04-02T07:43:44.764Z,23.9
2018-04-02T07:44:34.659Z,23.9
2018-04-02T07:45:25.601Z,23.9
2018-04-02T07:46:14.579Z,23.8
2018-04-02T07:47:04.840Z,23.9
2018-04-02T07:47:54.158Z,23.8
2018-04-02T07:48:45.057Z,23.8
2018-04-02T07:49:35.268Z,23.8
2018-04-02T07:50:25.686Z,23.8
2018-04-02T07:51:14.731Z,23.8
2018-04-02T07:52:04.865Z,23.8
2018-04-02T07:52:54.933Z,23.8
2018-04-02T07:53:44.783Z,23.7
2018-04-02T07:54:35.545Z,23.7
2018-04-02T07:55:25.128Z,23.7
2018-04-02T07:56:15.026Z,23.6
2018-04-02T07:57:06.363Z,23.6
2018-04-02T07:57:55.773Z,23.6
2018-04-02T07:58:45.063Z,23.6
2018-04-02T07:59:35.546Z,23.6
2018-04-02T08:00:25.947Z,23.5
2018-04-02T08:01:15.770Z,23.5
2018-04-02T08:02:05.714Z,23.5
2018-04-02T08:02:56.476Z,23.4
2018-04-02T08:03:45.702Z,23.4
2018-04-02T08:04:35.612Z,23.4
2018-04-02T08:05:26.328Z,23.4
2018-04-02T08:06:15.887Z,23.4
2018-04-02T08:07:06.300Z,23.4
2018-04-02T08:07:56.587Z,23.3
2018-04-02T08:08:46.550Z,23.3
2018-04-02T08:09:35.944Z,23.3
2018-04-02T08:10:26.174Z,23.3
2018-04-02T08:11:18.024Z,23.3
2018-04-02T08:12:06.991Z,23.3
2018-04-02T08:12:55.913Z,23.2
2018-04-02T08:13:46.470Z,23.2
2018-04-02T08:14:36.968Z,23.1
2018-04-02T08:15:26.959Z,23.1
2018-04-02T08:16:17.327Z,23.1
2018-04-02T08:17:06.093Z,23.1
2018-04-02T08:17:57.408Z,23.1
2018-04-02T08:18:46.688Z,23
2018-04-02T08:19:37.614Z,23
2018-04-02T08:20:27.704Z,23
2018-04-02T08:21:17.200Z,23
2018-04-02T08:22:07.724Z,22.9
2018-04-02T08:22:57.972Z,22.9
2018-04-02T08:23:46.966Z,22.9
2018-04-02T08:24:36.821Z,22.9
2018-04-02T08:25:27.448Z,22.9
2018-04-02T08:26:18.179Z,22.9
2018-04-02T08:27:07.915Z,22.9
2018-04-02T08:27:57.594Z,22.9
2018-04-02T08:28:47.302Z,22.9
2018-04-02T08:29:38.272Z,22.9
2018-04-02T08:30:27.477Z,22.9
2018-04-02T08:31:18.024Z,22.9
2018-04-02T08:32:08.159Z,22.9
2018-04-02T08:32:58.684Z,22.9
2018-04-02T08:33:48.704Z,22.9
2018-04-02T08:34:36.978Z,22.9
2018-04-02T08:35:28.134Z,22.9
2018-04-02T08:36:18.399Z,22.8
2018-04-02T08:37:08.589Z,22.8
2018-04-02T08:37:59.044Z,22.8
2018-04-02T08:38:48.981Z,22.8
2018-04-02T08:39:38.635Z,22.8
2018-04-02T08:40:28.805Z,22.8
2018-04-02T08:41:18.668Z,22.8
2018-04-02T08:42:09.121Z,22.8
2018-04-02T08:42:58.681Z,22.8
2018-04-02T08:43:48.036Z,22.7
2018-04-02T08:44:37.973Z,22.7
2018-04-02T08:45:28.727Z,22.7
2018-04-02T08:46:19.826Z,22.6
2018-04-02T08:47:08.834Z,22.6
2018-04-02T08:47:59.127Z,22.6
2018-04-02T08:48:49.288Z,22.6
2018-04-02T08:49:39.051Z,22.6
2018-04-02T08:50:28.734Z,22.5
2018-04-02T08:51:19.533Z,22.5
2018-04-02T08:52:08.834Z,22.5
2018-04-02T08:53:00.372Z,22.5
2018-04-02T08:53:49.549Z,22.4
2018-04-02T08:54:39.458Z,22.4
2018-04-02T08:55:29.275Z,22.4
2018-04-02T08:56:19.866Z,22.4
2018-04-02T08:57:10.859Z,22.4
2018-04-02T08:57:59.856Z,22.4
2018-04-02T08:58:49.635Z,22.4
2018-04-02T08:59:40.601Z,22.4
2018-04-02T09:00:29.873Z,22.4
2018-04-02T09:01:20.482Z,22.3
2018-04-02T09:02:09.950Z,22.3
2018-04-02T09:02:59.767Z,22.3
2018-04-02T09:03:50.389Z,22.3
2018-04-02T09:04:40.447Z,22.3
2018-04-02T09:05:30.652Z,22.3
2018-04-02T09:06:20.812Z,22.3
2018-04-02T09:07:10.830Z,22.3
2018-04-02T09:08:00.878Z,22.3
2018-04-02T09:08:50.884Z,22.3
2018-04-02T09:09:40.605Z,22.3
2018-04-02T09:10:30.784Z,22.3
2018-04-02T09:11:20.538Z,22.3
2018-04-02T09:12:11.127Z,22.3
2018-04-02T09:13:01.071Z,22.3
2018-04-02T09:13:51.245Z,22.2
2018-04-02T09:14:39.519Z,22.2
2018-04-02T09:15:31.817Z,22.2
2018-04-02T09:16:21.337Z,22.2
2018-04-02T09:17:10.981Z,22.2
2018-04-02T09:18:01.449Z,22.2
2018-04-02T09:18:51.766Z,22.1
2018-04-02T09:19:41.374Z,22.1
2018-04-02T09:20:31.412Z,22.1
2018-04-02T09:21:21.849Z,22.1
2018-04-02T09:22:11.072Z,22.1
2018-04-02T09:23:01.546Z,22.1
2018-04-02T09:23:52.144Z,22.1
2018-04-02T09:24:41.813Z,22.1
2018-04-02T09:25:31.706Z,22.1
2018-04-02T09:26:23.363Z,22.1
2018-04-02T09:27:11.324Z,22.1
2018-04-02T09:28:00.239Z,22.1
2018-04-02T09:28:50.364Z,22.1
2018-04-02T09:29:41.919Z,22
2018-04-02T09:30:32.244Z,22
2018-04-02T09:31:22.053Z,22
2018-04-02T09:32:11.990Z,22
2018-04-02T09:33:02.653Z,21.9
2018-04-02T09:33:52.771Z,22
2018-04-02T09:34:43.455Z,21.9
2018-04-02T09:35:32.808Z,21.9
2018-04-02T09:36:22.855Z,21.9
2018-04-02T09:37:13.070Z,21.9
2018-04-02T09:38:03.070Z,21.9
2018-04-02T09:38:53.730Z,21.9
2018-04-02T09:39:43.203Z,21.9
2018-04-02T09:40:33.455Z,21.9
2018-04-02T09:41:22.945Z,21.9
2018-04-02T09:42:13.745Z,21.9
2018-04-02T09:43:04.532Z,21.9
2018-04-02T09:43:54.603Z,21.9
2018-04-02T09:44:44.375Z,21.9
2018-04-02T09:45:34.223Z,21.9
2018-04-02T09:46:24.169Z,21.9
2018-04-02T09:47:14.802Z,21.8
2018-04-02T09:48:05.197Z,21.8
2018-04-02T09:48:55.227Z,21.8
2018-04-02T09:49:45.007Z,21.8
2018-04-02T09:50:35.049Z,21.8
2018-04-02T09:51:25.129Z,21.8
2018-04-02T09:52:15.449Z,21.8
2018-04-02T09:53:05.241Z,21.8
2018-04-02T09:53:55.309Z,21.8
2018-04-02T09:54:45.646Z,21.8
2018-04-02T09:55:35.159Z,21.8
2018-04-02T09:56:25.493Z,21.8
2018-04-02T09:57:15.851Z,21.7
2018-04-02T09:58:05.602Z,21.7
2018-04-02T09:58:55.376Z,21.7
2018-04-02T09:59:45.491Z,21.8
2018-04-02T10:00:36.129Z,21.7
2018-04-02T10:01:26.143Z,21.7
2018-04-02T10:02:15.919Z,21.7
2018-04-02T10:03:05.395Z,21.7
2018-04-02T10:03:55.741Z,21.7
2018-04-02T10:04:48.749Z,21.7
2018-04-02T10:05:35.287Z,21.7
2018-04-02T10:06:27.090Z,21.7
2018-04-02T10:07:16.341Z,21.6
2018-04-02T10:08:06.086Z,21.6
2018-04-02T10:08:56.391Z,21.6
2018-04-02T10:09:45.929Z,21.6
2018-04-02T10:10:36.421Z,21.6
2018-04-02T10:11:26.843Z,21.6
2018-04-02T10:12:16.121Z,21.6
2018-04-02T10:13:06.419Z,21.6
2018-04-02T10:13:56.830Z,21.6
2018-04-02T10:14:46.586Z,21.6
2018-04-02T10:15:37.040Z,21.6
2018-04-02T10:16:26.986Z,21.6
2018-04-02T10:17:16.442Z,21.6
2018-04-02T10:18:07.101Z,21.6
2018-04-02T10:18:57.117Z,21.6
2018-04-02T10:19:46.358Z,21.6
2018-04-02T10:20:36.042Z,21.6
2018-04-02T10:21:25.893Z,21.6
2018-04-02T10:22:15.527Z,21.5
2018-04-02T10:23:05.873Z,21.5
2018-04-02T10:23:56.689Z,21.5
2018-04-02T10:24:46.610Z,21.5
2018-04-02T10:25:36.039Z,21.5
2018-04-02T10:26:26.010Z,21.4
2018-04-02T10:27:16.108Z,21.4
2018-04-02T10:28:06.807Z,21.4
2018-04-02T10:28:56.639Z,21.4
2018-04-02T10:29:46.809Z,21.4
2018-04-02T10:30:35.584Z,21.4
2018-04-02T10:31:27.068Z,21.4
2018-04-02T10:32:16.329Z,21.4
2018-04-02T10:33:07.498Z,21.4
2018-04-02T10:33:57.419Z,21.4
2018-04-02T10:34:47.562Z,21.4
2018-04-02T10:35:36.224Z,21.4
2018-04-02T10:36:25.735Z,21.4
2018-04-02T10:37:16.662Z,21.3
2018-04-02T10:38:06.437Z,21.4
2018-04-02T10:38:57.186Z,21.4
2018-04-02T10:39:47.121Z,21.3
2018-04-02T10:40:37.236Z,21.3
2018-04-02T10:41:27.641Z,21.3
2018-04-02T10:42:17.517Z,21.3
2018-04-02T10:43:07.316Z,21.3
2018-04-02T10:43:57.261Z,21.4
2018-04-02T10:44:48.004Z,21.3
2018-04-02T10:45:36.492Z,21.3
2018-04-02T10:46:28.214Z,21.3
2018-04-02T10:47:17.214Z,21.3
2018-04-02T10:48:07.979Z,21.3
2018-04-02T10:48:58.079Z,21.3
2018-04-02T10:49:47.305Z,21.3
2018-04-02T10:50:37.448Z,21.3
2018-04-02T10:51:28.635Z,21.3
2018-04-02T10:52:18.430Z,21.3
2018-04-02T10:53:08.349Z,21.3
2018-04-02T10:53:58.335Z,21.3
2018-04-02T10:54:48.958Z,21.3
2018-04-02T10:55:37.707Z,21.3
2018-04-02T10:56:29.145Z,21.3
2018-04-02T10:57:17.950Z,21.3
2018-04-02T10:58:07.204Z,21.3
2018-04-02T10:58:59.030Z,21.3
2018-04-02T10:59:50.108Z,21.2
2018-04-02T11:00:37.675Z,21.2
2018-04-02T11:01:29.045Z,21.2
2018-04-02T11:02:19.217Z,21.2
2018-04-02T11:03:09.089Z,21.2
2018-04-02T11:03:59.347Z,21.2
2018-04-02T11:04:49.593Z,21.2
2018-04-02T11:05:40.087Z,21.2
2018-04-02T11:06:29.245Z,21.2
2018-04-02T11:14:49.255Z,21.2
2018-04-02T11:22:22.263Z,21.1
2018-04-02T11:23:11.908Z,21.1
2018-04-02T11:24:01.454Z,21.1
2018-04-02T11:24:52.294Z,21
2018-04-02T11:25:41.811Z,21
2018-04-02T11:26:32.478Z,20.9
2018-04-02T11:27:21.571Z,20.9
2018-04-02T11:28:10.146Z,20.9
2018-04-02T11:29:01.548Z,21